Maywood, MO (63454)

8:50 AM CDT on August 24, 2016 (GMT -0500)
Emerson | | Change Station
Active Advisory: Flash Flood Watch

Elev 656 ft 39.89 °N, 91.69 °W | Updated 15 minutes ago

Clear
Clear
74.7 °F
Feels Like 74 °F
N
3.7
Wind Variable Wind from WNW

Today
High -- | Low -- °F
--% Chance of Precip.
Yesterday
High -- | Low -- °F
Precip. -- in
Pressure 29.96 in
Visibility 10.0 miles
Clouds Clear
Heat Index 74 °F
Dew Point 72 °F
Humidity 90%
Rainfall 0.00 in
Snow Depth Not available.
6:27 AM 7:49 PM
Waning Gibbous, 57% visible
METAR KHAE 241335Z AUTO 21011G17KT 10SM CLR 25/21 A2996 RMK AO2
Pressure 29.96 in
Visibility 10.0 miles
Clouds Clear
Heat Index 74 °F
Dew Point 72 °F
Humidity 90%
Rainfall 0.00 in
Snow Depth Not available.
6:27 AM 7:49 PM
Waning Gibbous, 57% visible
METAR KHAE 241335Z AUTO 21011G17KT 10SM CLR 25/21 A2996 RMK AO2

10-Day Weather Forecast

Almanac

Astronomy

Aug. 24, 2016 Rise Set
Actual Time
Civil Twilight
Nautical Twilight
Astronomical Twilight
Moon
Length of Visible Light
Length of Day
Tomorrow will be .
, % of the Moon is Illuminated

Today's Extremes

State Highs State Lows

Community

WunderPhotos

Upload Photos

1,934,598 photos uploaded!

WunderBlog® & News

Nearby

Air Quality

  Air Quality AQ Index Pollutant
Not available.

Snow Depth

Station Depth Elevation

Earthquake Activity

City Distance Mag. Time & Date
Minimum magnitude displayed is 2.5.

Coastal Water Temperatures

Place Temperature

Stations

Nearby Weather Stations

Station Location Temp. Windchill Dew Point Humidity Wind Precip. Elev Updated Type
                   

Watches & Warnings

Flash Flood Watch
Issued: 3:45 AM CDT Aug. 24, 2016 – National Weather Service

... Flash Flood Watch in effect from this evening through Thursday
morning...

The National Weather Service in Saint Louis has issued a

* Flash Flood Watch for portions of west central Illinois and
northeast Missouri... including the following counties... in
west central Illinois... Adams IL. In northeast Missouri... Knox
MO... Lewis MO... Marion MO... Monroe MO... Ralls MO and Shelby
MO.

* From this evening through Thursday morning

* a slow moving cold front will provide a focus for thunderstorms
over the watch area tonight. Training thunderstorms are possible
due to the slow movement of the front. One to two inches of rain
is possible across the watch area with locally higher amounts.

* Heavy rainfall will result in flooding of low lying or poor
drainage areas... and ultimately dangerous flash flooding on
smaller creeks and streams. Significant rises on larger
streams and rivers will also be possible.

Precautionary/preparedness actions...

A Flash Flood Watch is advanced notice that conditions are
favorable that may lead to flash flooding. People in the watch
area... especially in flood prone areas... should use this time to
make preparations just in case. Stay informed... and be ready for
quick action if flooding is observed or if a Flash Flood Warning
is issued.



Carney